Fort Nelson Airport, British Columbia

Past 24 Hour Conditions

This table is a summary of hourly weather conditions for the past 24 hours. This summary includes the following parameters: temperature, humidity, dew point, wind speed and direction, air pressure, visibility and/or wind chill and humidex.
Date / Time
(PDT)
Conditions Temp (°F) Humidity (%) Dew Point (°F) Wind (mph) Pressure (inches) Visibility (miles)
18 September 2014
16:00 Mostly Cloudy 61 58 47 calm 29.4 30
15:00 Mostly Cloudy 60 58 46 W 4 29.4 30
14:00 Mostly Cloudy 60 59 46 E 2 29.4 30
13:00 Mostly Cloudy 55 70 46 ESE 3 29.5 30
12:00 Mostly Cloudy 51 75 43 ENE 3 29.5 30
11:00 Mostly Cloudy 48 82 43 SE 3 29.5 20
10:00 Mostly Cloudy 44 91 42 SSE 4 29.5 20
9:00 Mostly Cloudy 43 97 42 SSE 3 29.5 20
8:00 Mostly Cloudy 41 99 41 SE 3 29.5 20
7:00 Partly Cloudy 36   98 35 S 5 29.6 30
6:00 Partly Cloudy 41 99 40 N 2 29.5 15
5:00 Clear 42 100 42 S 4 29.6 15
4:00 Clear 44 98 43 SSE 3 29.6 15
3:00 Clear 40 92 38 SSW 2 29.6 30
2:00 Clear 40 95 39 SSE 4 29.6 15
1:00 Clear 42 98 42 SSW 3 29.6 15
00:00 Clear 44 93 42 N 2 29.6 15
17 September 2014
23:00 Clear 45 95 44 W 3 29.6 15
22:00 Clear 46 90 44 WSW 3 29.6 15
21:00 Mainly Clear 48 88 45 W 3 29.6 15
20:00 Mainly Clear 51 90 48 W 3 29.6 20
19:00 Mainly Sunny 60 64 48 E 3 29.6 30
18:00 Partly Cloudy 64 52 46 ENE 5 29.6 30
17:00 Partly Cloudy 66   49 46 N 8 29.6 30
16:00 Partly Cloudy 64 59 49 NE 3 29.6 30
N/A
Not available
 ↑ 
Highest temperature
 ↓ 
Lowest temperature

If you require additional historical weather information, please visit Climate Data Online.